OIZI  Iran Shahr Airport

Add Bookmark

Iran

Status
Operational
Latitude Longitude
27° 14' 9" N 60° 43' 12" E
27.236099 60.720001
Local (DST + 5) UTC (GMT + 4)
Aug 22, 2014 02:18 Aug 22, 2014 09:48
Sunrise-Sunset Local UTC
Begin Civil Twilight 05:36 01:06
Sunrise 06:00 01:30
Sunset 06:59 14:29
End Civil Twilight 07:23 14:53

Current Weather

METAR Observed VFR
OIZI 220900Z 00000KT CAVOK 42/09 Q1003 Fri, Aug 22, 2014 @ 09:00 UTC
(48 Minutes ago)
Visual Flight Rules
Wind Visibility Clouds Conditions
Calm 10 km or more
  • Clear skies
  • No significant weather
Temperatures Readings Precipitation
Current Temp 42°C (108°F)
Dewpoint 9°C (48°F)
Humidity 14%
Altimeter 29.62"Hg
Sea Level Pressure 1003mb
Field Elevation 1938.98'
None Recorded

24 Hour Weather History

Loading
-

24 Hour Weather Graphs

Loading
-

CheckWX.com is intended as a tool to help pilots better visualize weather data. It is not intended as a substitute for an official weather briefing obtained from a Flight Service Station. CheckWX.com does not meet the FAA requirements for an official pre-flight weather briefing. Therefore, it's important that pilots still call and obtain an official FSS pre-flight weather briefing.